createdAt,value
2022-12-01T00:03:58.331Z,0.57
2022-12-01T00:08:06.465Z,0.57
2022-12-01T00:12:14.149Z,0.54
2022-12-01T00:16:22.199Z,0.52
2022-12-01T00:20:31.199Z,0.46
2022-12-01T00:24:38.544Z,0.40
2022-12-01T00:28:46.489Z,0.38
2022-12-01T00:32:54.456Z,0.33
2022-12-01T00:37:01.896Z,0.31
2022-12-01T00:41:09.573Z,0.35
2022-12-01T00:45:18.557Z,0.32
2022-12-01T00:49:25.895Z,0.32
2022-12-01T00:53:33.437Z,0.28
2022-12-01T00:57:41.509Z,0.26
2022-12-01T01:01:49.831Z,0.29
2022-12-01T01:05:57.776Z,0.36
2022-12-01T01:10:05.469Z,0.40
2022-12-01T01:14:12.886Z,0.40
2022-12-01T01:18:21.741Z,0.35
2022-12-01T01:22:28.942Z,0.26
2022-12-01T01:26:37.533Z,0.20
2022-12-01T01:30:45.100Z,0.19
2022-12-01T01:34:52.650Z,0.20
2022-12-01T01:39:00.255Z,0.21
2022-12-01T01:43:17.200Z,0.18
2022-12-01T01:47:27.351Z,0.12
2022-12-01T01:51:38.642Z,0.07
2022-12-01T01:55:46.447Z,0.06
2022-12-01T01:59:56.677Z,0.08
2022-12-01T02:04:04.407Z,0.13
2022-12-01T02:08:13.066Z,0.17
2022-12-01T02:12:39.861Z,0.21
2022-12-01T02:16:54.494Z,0.21
2022-12-01T02:21:25.411Z,0.17
2022-12-01T02:25:37.845Z,0.13
2022-12-01T02:30:07.804Z,0.15
2022-12-01T02:34:20.051Z,0.22
2022-12-01T02:38:32.155Z,0.25
2022-12-01T02:42:54.427Z,0.25
2022-12-01T02:47:04.376Z,0.21
2022-12-01T02:51:17.576Z,0.14
2022-12-01T02:55:25.670Z,0.07
2022-12-01T02:59:33.537Z,0.07
2022-12-01T03:04:13.930Z,0.07
2022-12-01T03:08:26.834Z,0.13
2022-12-01T03:12:39.304Z,0.17
2022-12-01T03:16:51.842Z,0.20
2022-12-01T03:21:02.945Z,0.18
2022-12-01T03:25:11.721Z,0.18
2022-12-01T03:29:21.319Z,0.20
2022-12-01T03:33:32.987Z,0.26
2022-12-01T03:37:44.695Z,0.31
2022-12-01T03:41:55.305Z,0.36
2022-12-01T03:46:07.951Z,0.38
2022-12-01T03:50:18.780Z,0.38
2022-12-01T03:54:33.723Z,0.39
2022-12-01T03:58:44.758Z,0.39
2022-12-01T04:02:58.010Z,0.45
2022-12-01T04:07:06.359Z,0.52
2022-12-01T04:11:32.366Z,0.59
2022-12-01T04:15:40.135Z,0.65
2022-12-01T04:19:48.137Z,0.66
2022-12-01T04:24:02.666Z,0.64
2022-12-01T04:28:10.888Z,0.60
2022-12-01T04:32:19.049Z,0.57
2022-12-01T04:36:28.098Z,0.55
2022-12-01T04:40:35.881Z,0.61
2022-12-01T04:44:43.714Z,0.66
2022-12-01T04:48:51.904Z,0.70
2022-12-01T04:52:59.603Z,0.72
2022-12-01T04:57:06.906Z,0.69
2022-12-01T05:01:16.362Z,0.64
2022-12-01T05:05:24.349Z,0.63
2022-12-01T05:09:31.840Z,0.69
2022-12-01T05:13:40.879Z,0.73
2022-12-01T05:17:48.218Z,0.75
2022-12-01T05:21:56.085Z,0.74
2022-12-01T05:26:04.374Z,0.70
2022-12-01T05:30:14.752Z,0.67
2022-12-01T05:34:22.478Z,0.69
2022-12-01T05:38:30.526Z,0.74
2022-12-01T05:42:38.031Z,0.79
2022-12-01T05:46:45.167Z,0.77
2022-12-01T05:50:53.267Z,0.73
2022-12-01T05:55:01.956Z,0.66
2022-12-01T05:59:09.683Z,0.56
2022-12-01T06:03:17.877Z,0.49
2022-12-01T06:07:26.173Z,0.51
2022-12-01T06:11:35.247Z,0.58
2022-12-01T06:15:42.717Z,0.67
2022-12-01T06:19:52.178Z,0.72
2022-12-01T06:24:00.615Z,0.68
2022-12-01T06:28:08.344Z,0.66
2022-12-01T06:32:16.190Z,0.67
2022-12-01T06:36:24.828Z,0.69
2022-12-01T06:40:32.322Z,0.70
2022-12-01T06:44:40.064Z,0.70
2022-12-01T06:48:51.012Z,0.61
2022-12-01T06:52:59.476Z,0.51
2022-12-01T06:57:07.673Z,0.43
2022-12-01T07:01:16.049Z,0.41
2022-12-01T07:05:24.669Z,0.43
2022-12-01T07:09:33.185Z,0.48
2022-12-01T07:13:41.022Z,0.48
2022-12-01T07:17:51.125Z,0.48
2022-12-01T07:21:59.033Z,0.46
2022-12-01T07:26:08.495Z,0.44
2022-12-01T07:30:17.131Z,0.42
2022-12-01T07:34:24.800Z,0.48
2022-12-01T07:38:33.851Z,0.55
2022-12-01T07:42:43.652Z,0.67
2022-12-01T07:46:51.664Z,0.83
2022-12-01T07:50:59.981Z,0.92
2022-12-01T07:55:09.117Z,0.93
2022-12-01T07:59:17.265Z,0.92
2022-12-01T08:03:24.713Z,0.85
2022-12-01T08:07:32.846Z,0.82
2022-12-01T08:11:40.595Z,0.87
2022-12-01T08:15:48.954Z,0.95
2022-12-01T08:19:56.603Z,1.00
2022-12-01T08:24:04.057Z,1.03
2022-12-01T08:28:11.788Z,0.98
2022-12-01T08:32:19.615Z,0.94
2022-12-01T08:36:27.518Z,0.89
2022-12-01T08:40:35.187Z,0.93
2022-12-01T08:44:43.487Z,0.97
2022-12-01T08:48:51.446Z,1.07
2022-12-01T08:52:58.798Z,1.14
2022-12-01T08:57:06.966Z,1.14
2022-12-01T09:01:16.338Z,1.16
2022-12-01T09:05:24.354Z,1.18
2022-12-01T09:09:32.271Z,1.16
2022-12-01T09:13:40.943Z,1.19
2022-12-01T09:17:48.912Z,1.25
2022-12-01T09:21:56.707Z,1.31
2022-12-01T09:26:04.497Z,1.34
2022-12-01T09:30:14.772Z,1.35
2022-12-01T09:34:23.412Z,1.35
2022-12-01T09:38:31.520Z,1.35
2022-12-01T09:42:39.252Z,1.35
2022-12-01T09:46:50.227Z,1.43
2022-12-01T09:50:58.679Z,1.55
2022-12-01T09:55:08.630Z,1.62
2022-12-01T09:59:22.786Z,1.65
2022-12-01T10:03:35.540Z,1.66
2022-12-01T10:07:48.215Z,1.65
2022-12-01T10:12:00.434Z,1.66
2022-12-01T10:16:12.796Z,1.62
2022-12-01T10:20:25.965Z,1.63
2022-12-01T10:24:47.605Z,1.68
2022-12-01T10:29:18.154Z,1.72
2022-12-01T10:33:28.781Z,1.72
2022-12-01T10:37:36.441Z,1.70
2022-12-01T10:41:44.656Z,1.66
2022-12-01T10:45:52.451Z,1.65
2022-12-01T10:50:00.610Z,1.72
2022-12-01T10:54:12.437Z,1.80
2022-12-01T10:58:22.035Z,1.89
2022-12-01T11:02:30.939Z,1.94
2022-12-01T11:06:38.735Z,1.93
2022-12-01T11:10:50.992Z,1.88
2022-12-01T11:14:59.069Z,1.84
2022-12-01T11:19:27.545Z,1.86
2022-12-01T11:23:39.095Z,1.95
2022-12-01T11:27:52.884Z,2.01
2022-12-01T11:32:01.799Z,2.04
2022-12-01T11:36:16.082Z,2.03
2022-12-01T11:40:26.684Z,2.04
2022-12-01T11:44:50.708Z,2.01
2022-12-01T11:49:02.304Z,1.99
2022-12-01T11:53:29.085Z,2.05
2022-12-01T11:57:36.450Z,2.20
2022-12-01T12:02:02.509Z,2.24
2022-12-01T12:10:54.222Z,2.33
2022-12-01T12:15:12.406Z,2.34
2022-12-01T12:20:06.111Z,2.38
2022-12-01T12:24:37.626Z,2.42
2022-12-01T12:28:57.717Z,2.50
2022-12-01T12:33:26.111Z,2.56
2022-12-01T12:37:39.439Z,2.57
2022-12-01T12:41:49.808Z,2.56
2022-12-01T12:46:08.630Z,2.56
2022-12-01T12:50:31.759Z,2.52
2022-12-01T12:54:47.222Z,2.45
2022-12-01T12:59:01.246Z,2.44
2022-12-01T13:03:16.633Z,2.47
2022-12-01T13:07:33.734Z,2.49
2022-12-01T13:11:46.472Z,2.51
2022-12-01T13:15:56.146Z,2.50
2022-12-01T13:20:04.066Z,2.47
2022-12-01T13:24:18.506Z,2.43
2022-12-01T13:28:31.030Z,2.41
2022-12-01T13:32:40.827Z,2.45
2022-12-01T13:36:54.560Z,2.49
2022-12-01T13:41:26.082Z,2.50
2022-12-01T13:45:36.982Z,2.50
2022-12-01T13:49:46.256Z,2.48
2022-12-01T13:54:08.021Z,2.43
2022-12-01T13:58:32.156Z,2.37
2022-12-01T14:02:41.573Z,2.34
2022-12-01T14:06:50.503Z,2.37
2022-12-01T14:11:03.843Z,2.44
2022-12-01T14:15:35.503Z,2.46
2022-12-01T14:19:52.141Z,2.46
2022-12-01T14:24:05.615Z,2.46
2022-12-01T14:28:18.360Z,2.44
2022-12-01T14:32:28.609Z,2.39
2022-12-01T14:36:41.209Z,2.34
2022-12-01T14:40:48.986Z,2.34
2022-12-01T14:44:58.287Z,2.38
2022-12-01T14:49:06.875Z,2.40
2022-12-01T14:53:24.185Z,2.40
2022-12-01T14:57:43.354Z,2.41
2022-12-01T15:01:53.225Z,2.40
2022-12-01T15:06:01.013Z,2.38
2022-12-01T15:10:19.872Z,2.35
2022-12-01T15:14:34.938Z,2.34
2022-12-01T15:18:42.542Z,2.33
2022-12-01T15:22:50.456Z,2.33
2022-12-01T15:27:03.821Z,2.31
2022-12-01T15:31:14.496Z,2.31
2022-12-01T15:35:23.865Z,2.31
2022-12-01T15:39:35.439Z,2.30
2022-12-01T15:43:43.132Z,2.32
2022-12-01T15:47:52.686Z,2.37
2022-12-01T15:52:08.330Z,2.44
2022-12-01T15:56:16.852Z,2.46
2022-12-01T16:00:26.162Z,2.47
2022-12-01T16:04:35.594Z,2.46
2022-12-01T16:08:43.611Z,2.46
2022-12-01T16:12:51.205Z,2.44
2022-12-01T16:16:59.680Z,2.44
2022-12-01T16:21:08.610Z,2.50
2022-12-01T16:25:21.379Z,2.53
2022-12-01T16:29:30.074Z,2.57
2022-12-01T16:33:40.880Z,2.61
2022-12-01T16:37:49.914Z,2.61
2022-12-01T16:42:02.517Z,2.60
2022-12-01T16:46:14.095Z,2.58
2022-12-01T16:50:24.155Z,2.63
2022-12-01T16:54:31.375Z,2.69
2022-12-01T16:58:38.931Z,2.73
2022-12-01T17:02:46.905Z,2.75
2022-12-01T17:06:54.751Z,2.72
2022-12-01T17:11:05.752Z,2.66
2022-12-01T17:15:14.119Z,2.63
2022-12-01T17:19:21.807Z,2.60
2022-12-01T17:23:32.710Z,2.57
2022-12-01T17:27:42.276Z,2.57
2022-12-01T17:31:51.309Z,2.58
2022-12-01T17:36:03.037Z,2.61
2022-12-01T17:40:15.148Z,2.59
2022-12-01T17:44:22.815Z,2.50
2022-12-01T17:48:31.510Z,2.44
2022-12-01T17:52:39.639Z,2.43
2022-12-01T17:56:47.215Z,2.46
2022-12-01T18:00:56.531Z,2.50
2022-12-01T18:05:05.667Z,2.54
2022-12-01T18:09:14.440Z,2.55
2022-12-01T18:13:23.100Z,2.53
2022-12-01T18:17:30.739Z,2.50
2022-12-01T18:21:38.423Z,2.49
2022-12-01T18:25:46.754Z,2.45
2022-12-01T18:29:54.689Z,2.47
2022-12-01T18:34:10.269Z,2.55
2022-12-01T18:38:18.837Z,2.60
2022-12-01T18:42:27.646Z,2.59
2022-12-01T18:46:35.410Z,2.60
2022-12-01T18:50:43.274Z,2.58
2022-12-01T18:54:51.212Z,2.53
2022-12-01T18:58:59.705Z,2.48
2022-12-01T19:03:07.026Z,2.49
2022-12-01T19:07:15.407Z,2.54
2022-12-01T19:11:23.491Z,2.56
2022-12-01T19:15:31.045Z,2.56
2022-12-01T19:19:38.615Z,2.53
2022-12-01T19:23:46.728Z,2.50
2022-12-01T19:27:54.311Z,2.47
2022-12-01T19:32:04.259Z,2.42
2022-12-01T19:36:14.378Z,2.42
2022-12-01T19:40:22.246Z,2.46
2022-12-01T19:44:30.060Z,2.48
2022-12-01T19:48:37.734Z,2.48
2022-12-01T19:52:45.100Z,2.47
2022-12-01T19:56:53.441Z,2.45
2022-12-01T20:01:07.613Z,2.40
2022-12-01T20:05:17.218Z,2.35
2022-12-01T20:09:25.346Z,2.37
2022-12-01T20:13:33.978Z,2.43
2022-12-01T20:17:41.816Z,2.46
2022-12-01T20:21:49.977Z,2.47
2022-12-01T20:25:57.631Z,2.46
2022-12-01T20:30:06.098Z,2.38
2022-12-01T20:34:15.175Z,2.31
2022-12-01T20:38:27.302Z,2.28
2022-12-01T20:42:39.326Z,2.30
2022-12-01T20:46:48.377Z,2.33
2022-12-01T20:50:56.011Z,2.36
2022-12-01T20:55:03.667Z,2.35
2022-12-01T20:59:11.679Z,2.35
2022-12-01T21:03:18.954Z,2.30
2022-12-01T21:07:26.420Z,2.22
2022-12-01T21:11:55.064Z,2.18
2022-12-01T21:16:07.023Z,2.19
2022-12-01T21:20:22.786Z,2.24
2022-12-01T21:24:35.768Z,2.25
2022-12-01T21:28:45.479Z,2.23
2022-12-01T21:32:53.236Z,2.20
2022-12-01T21:37:03.474Z,2.14
2022-12-01T21:41:20.610Z,2.07
2022-12-01T21:45:32.198Z,2.03
2022-12-01T21:49:42.243Z,2.05
2022-12-01T21:53:51.451Z,2.09
2022-12-01T21:57:59.446Z,2.11
2022-12-01T22:02:29.760Z,2.09
2022-12-01T22:06:39.625Z,2.06
2022-12-01T22:10:59.188Z,2.00
2022-12-01T22:15:24.031Z,1.95
2022-12-01T22:19:34.230Z,1.91
2022-12-01T22:23:44.299Z,1.93
2022-12-01T22:27:52.316Z,1.96
2022-12-01T22:32:35.677Z,1.96
2022-12-01T22:36:44.302Z,1.90
2022-12-01T22:40:59.838Z,1.82
2022-12-01T22:45:24.817Z,1.75
2022-12-01T22:49:33.058Z,1.73
2022-12-01T22:53:41.301Z,1.70
2022-12-01T22:57:49.860Z,1.74
2022-12-01T23:01:59.969Z,1.78
2022-12-01T23:06:46.238Z,1.80
2022-12-01T23:10:55.045Z,1.79
2022-12-01T23:15:16.399Z,1.75
2022-12-01T23:19:24.775Z,1.68
2022-12-01T23:23:33.792Z,1.62
2022-12-01T23:27:42.350Z,1.58
2022-12-01T23:31:50.018Z,1.62
2022-12-01T23:36:01.725Z,1.65
2022-12-01T23:40:20.717Z,1.65
2022-12-01T23:44:37.273Z,1.64
2022-12-01T23:48:47.286Z,1.60
2022-12-01T23:52:55.584Z,1.54
2022-12-01T23:57:04.984Z,1.49
